Latest Weather Observations for Kilmore Gap

IDV60801

Issued at 12:05 pm EDT Tuesday 25 November 2014 (issued every 30 minutes, with the page automatically refreshed every 10 minutes)

About weather observations | Map of weather stations | Latest weather observations for VIC | Other Formats
Station Details ID: 088162 Name: KILMORE GAP Lat: -37.38 Lon: 144.97 Height: 527.8 m
Data from the previous 72 hours. | See also: Recent months at Kilmore Gap
Date/Time
EDT
Temp
°C
App
Temp
°C
Dew
Point
Rel
Hum
%
Delta-T
°C
Wind Press
QNH
hPa
Press
MSL
hPa
Rain
since 9 am
mm
Dir
 
Spd
km/h
Gust
km/h
Spd
kts
Gust
kts
25/12:00pm 14.6 9.7 5.1 53 4.6 SW 20 28 11 15 1019.5 1019.0 0.0
25/11:30am 14.1 9.2 6.7 61 3.7 SW 22 33 12 18 1019.5 - 0.0
25/11:00am 13.0 8.3 6.1 63 3.4 SW 20 30 11 16 1019.6 - 0.0
25/10:30am 12.8 8.3 6.8 67 3.0 WSW 20 35 11 19 1019.5 - 0.0
25/10:00am 11.9 7.4 7.0 72 2.4 WSW 20 33 11 18 1019.4 - 0.0
25/09:30am 12.1 7.9 8.2 77 2.0 SW 20 30 11 16 1019.2 - 0.0
25/09:00am 10.8 6.2 6.7 76 2.0 WSW 20 33 11 18 1019.0 1018.4 9.2
25/08:30am 9.8 5.5 7.2 84 1.3 WSW 19 28 10 15 1018.6 - 9.2
25/08:00am 9.5 4.6 7.1 85 1.2 WSW 22 32 12 17 1017.9 - 9.2
25/07:30am 8.6 4.2 6.6 87 1.0 WSW 19 24 10 13 1017.3 - 9.2
25/07:00am 7.9 4.1 5.9 87 0.9 WSW 15 20 8 11 1017.0 - 9.2
25/06:30am 7.2 2.6 5.5 89 0.8 WSW 19 28 10 15 1016.3 - 9.2
25/06:00am 7.3 2.5 5.4 88 0.9 WSW 20 30 11 16 1016.1 1015.5 9.2
25/05:30am 7.0 2.3 5.2 88 0.8 WSW 19 30 10 16 1015.6 - 9.2
25/05:00am 6.8 1.9 5.1 89 0.8 W 20 28 11 15 1015.3 - 9.2
25/04:30am 7.1 1.9 5.3 88 0.8 W 22 28 12 15 1015.0 - 9.2
25/04:00am 7.3 1.7 5.4 88 0.9 WSW 24 33 13 18 1014.8 - 9.2
25/03:30am 7.5 2.3 5.5 87 0.9 WSW 22 32 12 17 1014.9 - 9.2
25/03:00am 7.5 2.7 5.6 88 0.9 WSW 20 32 11 17 1015.0 1014.4 9.2
25/02:30am 7.8 2.6 5.6 86 1.0 WSW 22 30 12 16 1014.9 - 9.2
25/02:00am 7.7 2.6 6.0 89 0.8 WSW 22 30 12 16 1014.7 - 9.2
25/01:30am 7.7 3.0 6.2 90 0.7 SW 20 26 11 14 1014.7 - 9.2
25/01:00am 8.0 3.6 6.5 90 0.7 SW 19 24 10 13 1014.6 - 9.2
25/12:30am 8.3 3.8 6.9 91 0.7 SW 20 26 11 14 1014.6 - 9.2
25/12:00am 8.6 4.2 7.4 92 0.6 SW 20 28 11 15 1014.3 1013.7 9.2
 
Date/Time
EDT
Temp
°C
App
Temp
°C
Dew
Point
Rel
Hum
%
Delta-T
°C
Wind Press
QNH
hPa
Press
MSL
hPa
Rain
since 9 am
mm
Dir
 
Spd
km/h
Gust
km/h
Spd
kts
Gust
kts
24/11:30pm 8.9 4.7 8.1 95 0.4 SSW 20 32 11 17 1014.1 - 9.2
24/11:00pm 9.1 4.6 8.5 96 0.3 SSW 22 30 12 16 1014.0 - 9.2
24/10:30pm 9.4 5.3 8.8 96 0.3 SSW 20 32 11 17 1013.9 - 9.2
24/10:27pm 9.3 5.2 8.7 96 0.3 SSW 20 32 11 17 1013.9 - 9.2
24/10:01pm 9.8 5.8 9.0 95 0.4 SSW 20 28 11 15 1013.8 - 9.2
24/10:00pm 9.8 5.8 9.2 96 0.3 SSW 20 28 11 15 1013.8 - 9.2
24/09:30pm 10.0 5.2 8.9 93 0.6 SW 24 32 13 17 1013.3 - 9.2
24/09:00pm 10.2 5.4 9.0 92 0.6 SW 24 33 13 18 1013.1 1012.5 9.2
24/08:30pm 10.0 4.4 8.8 92 0.6 SW 28 41 15 22 1011.9 - 9.2
24/08:13pm 10.1 3.8 9.0 93 0.6 SW 32 41 17 22 1011.5 - 9.2
24/08:00pm 10.1 3.9 9.5 96 0.3 SW 32 50 17 27 1011.4 - 9.2
24/07:56pm 10.1 4.0 9.6 97 0.3 SW 32 50 17 27 1011.4 - 9.2
24/07:33pm 10.8 5.4 10.8 100 0.0 SW 30 46 16 25 1011.2 - 9.2
24/07:30pm 10.8 5.0 10.8 100 0.0 SW 32 52 17 28 1011.1 - 9.2
24/07:08pm 12.1 5.0 12.1 100 0.0 SW 41 59 22 32 1010.4 - 9.0
24/07:05pm 12.9 9.9 12.6 98 0.2 S 20 44 11 24 1010.2 - 9.0
24/07:04pm 13.2 10.4 12.7 97 0.3 S 19 35 10 19 1010.2 - 9.0
24/07:00pm 13.7 11.0 12.8 94 0.5 S 19 28 10 15 1010.2 - 8.8
24/06:30pm 14.3 11.7 13.3 94 0.6 S 19 28 10 15 1009.4 - 8.8
24/06:00pm 13.7 10.1 12.9 95 0.5 SSW 24 37 13 20 1008.9 1008.2 8.8
24/05:49pm 13.5 10.4 13.5 100 0.0 SSW 22 33 12 18 1008.4 - 8.8
24/05:34pm 13.3 9.0 13.3 100 0.0 SW 28 37 15 20 1008.4 - 8.8
24/05:30pm 13.3 9.0 13.3 100 0.0 SSW 28 39 15 21 1008.3 - 8.8
24/05:11pm 14.3 10.4 14.3 100 0.0 SSW 28 48 15 26 1007.5 - 8.8
24/05:00pm 15.5 13.7 15.5 100 0.0 SSW 19 26 10 14 1007.3 - 8.8
24/04:30pm 15.6 15.0 15.6 100 0.0 S 13 24 7 13 1007.2 - 8.8
24/04:00pm 17.6 19.0 17.3 98 0.2 SSW 6 13 3 7 1007.4 - 6.8
24/03:57pm 17.8 20.0 17.5 98 0.2 SSW 2 11 1 6 1007.4 - 6.8
24/03:31pm 17.5 15.9 16.4 93 0.7 WNW 20 32 11 17 1008.0 - 5.4
24/03:30pm 17.6 15.5 16.3 92 0.8 WNW 22 32 12 17 1008.0 - 5.2
24/03:00pm 18.5 15.3 15.4 82 1.9 WNW 26 41 14 22 1007.4 1006.7 4.8
24/02:30pm 18.9 14.9 17.6 92 0.8 NNW 35 44 19 24 1006.9 - 4.8
24/02:15pm 16.6 11.1 15.8 95 0.5 N 39 50 21 27 1006.9 - 4.8
24/02:00pm 17.0 11.6 16.0 94 0.6 NNW 39 59 21 32 1007.5 - 4.0
24/01:53pm 17.6 12.8 16.6 94 0.6 NNW 37 57 20 31 1007.8 - 3.6
24/01:49pm 17.8 13.5 16.8 94 0.6 NNW 35 57 19 31 1008.2 - 3.2
24/01:35pm 18.1 14.5 17.3 95 0.5 N 32 44 17 24 1008.7 - 2.6
24/01:30pm 18.0 14.7 17.0 94 0.6 N 30 37 16 20 1008.7 - 2.6
24/01:14pm 18.4 16.8 16.4 88 1.2 N 20 28 11 15 1009.2 - 2.2
24/01:00pm 19.7 18.0 16.2 80 2.1 N 20 24 11 13 1009.6 - 1.6
24/12:30pm 18.5 17.4 14.4 77 2.4 NNW 13 19 7 10 1010.3 - 1.2
24/12:00pm 18.7 16.9 15.6 82 1.9 N 19 24 10 13 1010.1 1009.5 1.2
24/11:30am 19.0 16.5 14.1 73 2.9 N 20 28 11 15 1010.6 - 1.0
24/11:00am 18.5 15.8 13.6 73 2.9 NNE 20 28 11 15 1010.6 - 1.0
24/10:30am 17.7 13.4 13.2 75 2.6 N 28 33 15 18 1010.8 - 1.0
24/10:00am 16.3 11.4 12.5 78 2.1 N 30 35 16 19 1011.4 - 1.0
24/09:49am 15.9 11.4 12.5 80 1.9 N 28 33 15 18 1011.4 - 1.0
24/09:32am 14.7 8.5 12.7 88 1.1 NNW 37 48 20 26 1011.5 - 0.8
24/09:30am 15.0 8.3 12.3 84 1.5 NNW 39 54 21 29 1011.6 - 0.4
24/09:28am 15.2 8.1 12.3 83 1.6 N 41 59 22 32 1011.5 - 0.4
24/09:00am 17.9 10.3 10.5 62 4.1 N 41 52 22 28 1010.7 1010.0 0.0
24/08:30am 18.3 11.1 10.4 60 4.3 N 39 46 21 25 1009.8 - 0.0
24/08:00am 16.8 10.1 10.9 68 3.2 N 37 52 20 28 1010.0 - 0.0
24/07:30am 16.9 9.7 10.5 66 3.5 N 39 46 21 25 1010.1 - 0.0
24/07:00am 16.8 8.9 10.9 68 3.2 N 43 54 23 29 1009.6 - 0.0
24/06:30am 17.4 11.0 10.8 65 3.6 N 35 46 19 25 1010.1 - 0.0
24/06:00am 16.6 12.0 11.1 70 3.0 N 26 32 14 17 1010.0 1009.4 0.0
24/05:30am 16.6 10.9 11.1 70 3.0 N 32 39 17 21 1009.3 - 0.0
24/05:00am 17.6 11.4 10.2 62 4.0 N 33 41 18 22 1009.7 - 0.0
24/04:30am 16.0 11.2 11.8 76 2.3 N 28 32 15 17 1009.5 - 0.0
24/04:00am 16.4 12.7 11.6 73 2.7 NNE 22 26 12 14 1010.0 - 0.0
24/03:30am 16.5 13.2 11.0 70 3.0 NNE 19 22 10 12 1010.6 - 0.0
24/03:00am 17.1 14.1 10.7 66 3.5 NNE 17 19 9 10 1011.1 1010.4 0.0
24/02:30am 17.6 14.7 10.9 65 3.7 N 17 20 9 11 1011.4 - 0.0
24/02:00am 17.7 14.6 11.7 68 3.4 N 19 22 10 12 1011.8 - 0.0
24/01:30am 17.3 14.8 12.2 72 2.9 NNE 17 19 9 10 1012.2 - 0.0
24/01:00am 15.1 13.4 11.1 77 2.2 ENE 11 15 6 8 1012.8 - 0.0
24/12:30am 15.5 14.2 11.3 76 2.3 NE 9 11 5 6 1013.5 - 0.0
24/12:00am 14.3 12.9 10.9 80 1.8 S 9 13 5 7 1013.7 1013.1 0.0
 
Date/Time
EDT
Temp
°C
App
Temp
°C
Dew
Point
Rel
Hum
%
Delta-T
°C
Wind Press
QNH
hPa
Press
MSL
hPa
Rain
since 9 am
mm
Dir
 
Spd
km/h
Gust
km/h
Spd
kts
Gust
kts
23/11:30pm 14.5 12.7 10.9 79 2.0 SSE 11 13 6 7 1013.9 - 0.0
23/11:00pm 14.6 13.7 11.2 80 1.9 SSE 7 11 4 6 1014.4 - 0.0
23/10:30pm 14.5 13.8 11.3 81 1.8 WSW 6 7 3 4 1014.7 - 0.0
23/10:00pm 14.4 13.2 11.6 83 1.5 W 9 11 5 6 1015.0 - 0.0
23/09:30pm 14.5 13.0 11.8 84 1.5 SW 11 15 6 8 1014.4 - 0.0
23/09:00pm 15.0 12.0 11.8 81 1.8 SSE 19 24 10 13 1013.9 1013.3 0.0
23/08:30pm 15.1 12.8 11.7 80 1.9 S 15 20 8 11 1014.1 - 0.0
23/08:00pm 15.8 13.1 11.8 77 2.2 S 17 22 9 12 1013.9 - 0.0
23/07:30pm 16.9 13.9 11.8 72 2.9 S 19 28 10 15 1013.8 - 0.0
23/07:00pm 18.0 15.4 12.0 68 3.4 S 17 24 9 13 1013.8 - 0.0
23/06:30pm 19.0 16.1 12.3 65 3.8 S 19 28 10 15 1013.5 - 0.0
23/06:00pm 20.6 17.0 13.1 62 4.4 S 24 32 13 17 1013.1 1012.5 0.0
23/05:30pm 21.4 17.5 13.3 60 4.8 S 26 33 14 18 1012.9 - 0.0
23/05:00pm 21.9 18.8 13.5 59 5.0 S 22 33 12 18 1012.6 - 0.0
23/04:30pm 23.6 21.4 14.3 56 5.6 S 19 28 10 15 1012.2 - 0.0
23/04:00pm 23.8 21.3 14.2 55 5.8 S 20 28 11 15 1011.9 - 0.0
23/03:30pm 26.6 25.5 14.4 47 7.5 S 13 22 7 12 1011.5 - 0.0
23/03:00pm 28.3 25.2 13.4 40 9.0 NW 22 33 12 18 1011.6 1011.0 0.0
23/02:30pm 27.3 22.4 12.5 40 8.8 NW 30 44 16 24 1011.4 - 0.0
23/02:00pm 27.7 23.3 12.9 40 8.9 NW 28 39 15 21 1011.4 - 0.0
23/01:30pm 26.6 23.6 14.7 48 7.3 N 24 32 13 17 1011.6 - 0.0
23/01:00pm 25.2 23.7 15.2 54 6.2 N 17 24 9 13 1012.0 - 0.0
23/12:30pm 23.5 22.1 14.5 57 5.4 NNW 15 24 8 13 1012.2 - 0.0
23/12:00pm 23.1 23.1 15.2 61 4.8 N 9 15 5 8 1012.4 1011.8 0.0
23/11:30am 22.1 22.3 14.7 63 4.5 E 7 11 4 6 1012.9 - 0.0
23/11:00am 21.1 21.4 15.9 72 3.2 ESE 9 13 5 7 1012.9 - 0.0
23/10:30am 19.6 19.8 14.8 74 2.9 ESE 7 13 4 7 1013.2 - 0.0
23/10:00am 18.9 18.5 14.2 74 2.8 SE 9 11 5 6 1013.4 - 0.0
23/09:30am 17.8 17.4 14.1 79 2.2 SE 9 13 5 7 1013.5 - 0.0
23/09:00am 16.6 16.4 13.5 82 1.8 SSE 7 11 4 6 1013.5 1012.9 4.0
23/08:30am 15.7 14.7 13.4 86 1.3 SSE 11 15 6 8 1013.2 - 4.0
23/08:00am 14.1 12.7 12.3 89 1.0 S 11 17 6 9 1013.0 - 4.0
23/07:30am 13.9 13.1 12.8 93 0.6 SSE 9 13 5 7 1012.8 - 4.0
23/07:00am 13.0 11.3 12.5 97 0.3 SSE 13 17 7 9 1012.3 - 4.0
23/06:30am 12.9 11.5 12.3 96 0.3 SSE 11 15 6 8 1012.2 - 4.0
23/06:00am 13.2 12.1 12.1 93 0.6 S 9 15 5 8 1011.9 1011.3 3.6
23/05:30am 13.1 12.0 12.0 93 0.6 S 9 11 5 6 1012.0 - 3.6
23/05:00am 13.2 12.4 11.8 91 0.8 S 7 9 4 5 1012.1 - 3.6
23/04:30am 13.5 11.5 11.6 88 1.0 SSW 13 17 7 9 1012.2 - 3.6
23/04:00am 13.5 11.2 11.6 88 1.0 SSW 15 19 8 10 1012.1 - 3.6
23/03:30am 13.6 11.3 11.8 89 1.0 SSW 15 19 8 10 1011.6 - 3.6
23/03:00am 13.8 11.7 12.4 91 0.8 SSW 15 20 8 11 1011.2 1010.5 3.6
23/02:30am 13.8 12.3 13.0 95 0.5 S 13 20 7 11 1011.0 - 3.6
23/02:00am 13.9 11.7 13.4 97 0.3 S 17 24 9 13 1010.8 - 3.6
23/01:49am 14.2 11.5 13.4 95 0.5 S 20 39 11 21 1010.4 - 3.6
23/01:30am 14.3 12.2 13.5 95 0.5 S 17 24 9 13 1011.0 - 3.4
23/01:24am 14.7 12.2 13.4 92 0.7 S 19 28 10 15 1011.5 - 1.2
23/01:20am 14.7 11.9 13.2 91 0.9 S 20 28 11 15 1010.6 - 0.2
23/01:06am 15.2 13.0 13.2 88 1.1 S 17 24 9 13 1010.8 - 0.2
23/01:00am 15.7 12.9 12.6 82 1.8 SSW 19 24 10 13 1011.4 - 0.0
23/12:30am 17.0 16.7 14.5 85 1.5 WNW 9 15 5 8 1011.4 - 0.0
23/12:00am 17.4 16.8 14.7 84 1.6 N 11 17 6 9 1010.9 1010.2 0.0
 
Date/Time
EDT
Temp
°C
App
Temp
°C
Dew
Point
Rel
Hum
%
Delta-T
°C
Wind Press
QNH
hPa
Press
MSL
hPa
Rain
since 9 am
mm
Dir
 
Spd
km/h
Gust
km/h
Spd
kts
Gust
kts
22/11:30pm 18.0 15.3 14.5 80 2.1 N 22 32 12 17 1011.4 - 0.0
22/11:00pm 18.2 14.2 14.1 77 2.4 N 28 37 15 20 1010.1 - 0.0
22/10:30pm 19.2 12.5 13.4 69 3.4 N 41 50 22 27 1010.6 - 0.0
22/10:00pm 19.6 12.8 13.1 66 3.8 N 41 52 22 28 1009.7 - 0.0
22/09:30pm 20.5 14.1 12.0 58 4.9 N 37 48 20 26 1009.3 - 0.0
22/09:00pm 21.2 13.7 11.0 52 5.8 N 41 54 22 29 1009.2 1008.5 0.0
22/08:30pm 22.6 13.6 9.0 42 7.5 N 46 59 25 32 1008.7 - 0.0
22/08:02pm 23.2 13.9 7.7 37 8.3 N 46 65 25 35 1008.2 - 0.0
22/08:00pm 23.4 13.8 7.9 37 8.4 N 48 65 26 35 1008.3 - 0.0
22/07:38pm 23.9 13.8 7.5 35 8.8 NNW 50 69 27 37 1008.6 - 0.0
22/07:30pm 24.4 13.5 7.1 33 9.3 NNW 54 69 29 37 1008.3 - 0.0
22/07:00pm 25.3 15.2 7.4 32 9.7 NNW 50 70 27 38 1008.3 - 0.0
22/06:31pm 25.1 15.9 6.3 30 10.0 N 44 65 24 35 1007.8 - 0.0
22/06:30pm 24.8 15.9 7.0 32 9.5 N 43 57 23 31 1007.9 - 0.0
22/06:00pm 24.8 14.9 6.5 31 9.7 N 48 61 26 33 1008.0 1007.3 0.0
22/05:30pm 25.1 14.9 6.8 31 9.8 N 50 69 27 37 1008.0 - 0.0
22/05:12pm 25.3 15.0 6.5 30 10.0 N 50 69 27 37 1007.7 - 0.0
22/05:00pm 25.9 14.9 7.0 30 10.2 N 54 69 29 37 1007.8 - 0.0
22/04:37pm 25.9 14.8 6.5 29 10.4 N 54 72 29 39 1007.7 - 0.0
22/04:30pm 26.0 14.8 7.6 31 10.0 N 56 69 30 37 1008.0 - 0.0
22/04:04pm 25.1 13.0 6.3 30 10.0 N 59 78 32 42 1008.1 - 0.0
22/04:00pm 25.2 13.7 6.9 31 9.8 N 57 70 31 38 1008.1 - 0.0
22/03:31pm 24.2 14.9 7.4 34 9.0 N 46 65 25 35 1009.0 - 0.0
22/03:30pm 24.2 14.3 6.5 32 9.4 N 48 65 26 35 1009.0 - 0.0
22/03:04pm 25.1 15.7 7.3 32 9.6 N 46 65 25 35 1009.7 - 0.0
22/03:00pm 25.3 15.4 6.5 30 10.0 N 48 65 26 35 1009.7 1009.1 0.0
22/02:30pm 23.4 15.1 7.9 37 8.4 N 41 54 22 29 1010.0 - 0.0
22/02:00pm 21.8 13.7 8.7 43 7.1 N 41 56 22 30 1010.2 - 0.0
22/01:30pm 19.9 12.1 8.3 47 6.2 NNE 39 50 21 27 1010.0 - 0.0
22/01:00pm 19.5 13.6 9.1 51 5.6 NNE 30 37 16 20 1011.6 - 0.0
22/12:30pm 18.6 13.0 8.8 53 5.2 NNE 28 37 15 20 1012.2 - 0.0

Other Formats:

Comma delimited format used in spreadsheet applications
http://www.bom.gov.au/fwo/IDV60801/IDV60801.94860.axf

JavaScript Object Notation format (JSON) in row-major order
http://www.bom.gov.au/fwo/IDV60801/IDV60801.94860.json